Helm, California
Current Conditions -  °F | °C
As of 9:56 PM on Friday 19 Dec 2014 (Local Time) from KNLC Reporting Station
Few Clouds Few Clouds  
Wind Chill: 52°   Ceiling: Unl
Heat Index: 52°   Visibility: NA
Dew Point: 48°   Wind: 3mph
Humidity: 86%   Direction: 90°E
Pressure: 30.2"   Gusts: NA
Location:  36.53°N, 120.1°W
Report Text: KNLC 200556Z AUTO 09003KT FEW120 11/09 A3020 RMK AO2 RAE01 SLP227 P0000 60000 T01110089 10139 20100 55000 RVRNO $
Loading
Personal Weather Stations






























Interactive Weather Map New forecast layout! Learn more

10-Day Weather Forecast

Advertisements
Track Severe Weather on mobile